V.b Algeciras — ECCR — position and weather

sailwx.info

Track history (hours):
 
Tides and Currents Weather Stations Pressure Air Temp Water Temp Dewpoint Dewpoint Depression Visibility Wind Speed Wind Dir Waves Ship Positions

V.b Algeciras

Last reported at 2016-Jun-30 22:33 UTC. Time now 2016-Jun-30 23:14 UTC.
Position N 36°08' W 005°26'.

Length 30 m; draft 5.1 m.

Type: Tug. MMSI: 224121250.

Date/timePositionNaut miles runAvg speedWind from/ knotsBaromVisibWave heightAir tempDewpointWater temp
2016-Jun-30 22:33N 36°08' W 005°26'0 0.0
2016-Jun-30 21:33N 36°08' W 005°26'0 0.0
2016-Jun-30 20:23N 36°08' W 005°26'0 0.0
2016-Jun-30 19:31N 36°08' W 005°26'0 0.0
2016-Jun-30 18:33N 36°08' W 005°26'0 0.1
2016-Jun-30 16:16N 36°08' W 005°26'0 0.6
2016-Jun-30 15:31N 36°08' W 005°25'0 0.1
2016-Jun-30 12:31N 36°08' W 005°26'0 0.4
2016-Jun-30 11:25N 36°08' W 005°25'1 0.7
2016-Jun-30 10:27N 36°09' W 005°26'2 0.4
2016-Jun-30 04:20N 36°11' W 005°24'0 0.5
2016-Jun-30 03:33N 36°11' W 005°24'0 0.3
2016-Jun-30 02:24N 36°11' W 005°24'3 3.2
2016-Jun-30 01:33N 36°08' W 005°25'0 0.0
2016-Jun-30 00:33N 36°08' W 005°25'0 0.0
2016-Jun-29 23:33N 36°08' W 005°25'0 0.0
2016-Jun-29 22:32N 36°08' W 005°25'0 0.0
2016-Jun-29 21:33N 36°08' W 005°25'0 0.0
2016-Jun-29 20:28N 36°08' W 005°25'0 0.0
2016-Jun-29 19:33N 36°08' W 005°25'0 0.0
2016-Jun-29 18:26N 36°08' W 005°25'0 0.0
2016-Jun-29 17:30N 36°08' W 005°25'0 0.0
2016-Jun-29 16:33N 36°08' W 005°25'0 0.0
2016-Jun-29 15:33N 36°08' W 005°25'1 0.5
2016-Jun-29 14:33N 36°08' W 005°25'1 0.5
2016-Jun-29 13:30N 36°08' W 005°25'0 0.0
2016-Jun-29 12:31N 36°08' W 005°25'1 0.5
2016-Jun-29 11:31N 36°08' W 005°25'1 0.5
2016-Jun-29 10:33N 36°08' W 005°25'0 0.0
2016-Jun-29 09:33N 36°08' W 005°25'0 0.0
2016-Jun-29 08:31N 36°08' W 005°25'0 0.0
2016-Jun-29 07:13N 36°08' W 005°25'1 0.8
2016-Jun-29 06:33N 36°08' W 005°26'0 0.0
2016-Jun-29 05:29N 36°08' W 005°26'0 0.0
2016-Jun-29 04:22N 36°08' W 005°26'1 0.9
2016-Jun-29 03:33N 36°08' W 005°25'1 0.5
2016-Jun-29 02:33N 36°08' W 005°25'0 0.5
2016-Jun-29 01:33N 36°08' W 005°25'1 0.6
2016-Jun-29 00:34N 36°08' W 005°25'0 0.3
2016-Jun-28 23:33N 36°08' W 005°26'0 0.0
2016-Jun-28 22:19N 36°08' W 005°26'0 0.0
2016-Jun-28 21:33N 36°08' W 005°26'0 0.0
2016-Jun-28 20:29N 36°08' W 005°26'0 0.3
2016-Jun-28 19:33N 36°08' W 005°25'0 0.3
2016-Jun-28 18:33N 36°08' W 005°26'0 0.0
2016-Jun-28 17:10N 36°08' W 005°26'0 0.0
2016-Jun-28 12:31N 36°08' W 005°26'0 0.0
2016-Jun-28 11:30N 36°08' W 005°26'0 0.0
2016-Jun-28 09:04N 36°08' W 005°26'0 0.7
2016-Jun-28 08:33N 36°08' W 005°25'0 0.3
2016-Jun-28 07:29N 36°08' W 005°26'1 0.8
2016-Jun-28 06:33N 36°07' W 005°25'1 0.4
2016-Jun-28 04:22N 36°08' W 005°26'0 0.0
2016-Jun-28 02:10N 36°08' W 005°26'1 0.1
2016-Jun-27 16:21N 36°09' W 005°25'0 0.1
2016-Jun-27 12:34N 36°08' W 005°26'0 0.3
2016-Jun-27 11:32N 36°08' W 005°25'0 0.1
2016-Jun-27 10:29N 36°08' W 005°25'0 0.0
2016-Jun-27 04:33N 36°08' W 005°25'0 0.4
2016-Jun-27 03:33N 36°07' W 005°25'1 0.1
2016-Jun-26 21:26N 36°08' W 005°26'0 0.1
2016-Jun-26 16:33N 36°08' W 005°25'0 0.3
2016-Jun-26 15:33N 36°08' W 005°26'0 0.0
2016-Jun-26 14:21N 36°08' W 005°26'0 0.0
2016-Jun-26 13:24N 36°08' W 005°26'0 0.2
2016-Jun-26 12:05N 36°08' W 005°26'0 0.1
2016-Jun-26 10:28N 36°08' W 005°26'0 0.0
2016-Jun-26 08:20N 36°08' W 005°26'0 0.3
2016-Jun-26 07:33N 36°08' W 005°25'0 0.4
2016-Jun-26 06:30N 36°08' W 005°26'0 0.3
2016-Jun-26 05:33N 36°08' W 005°26'0 0.2
2016-Jun-26 04:33N 36°08' W 005°26'1 0.6
2016-Jun-26 03:28N 36°09' W 005°25'1 0.8
2016-Jun-26 02:34N 36°08' W 005°25'1 0.5
2016-Jun-26 01:34N 36°08' W 005°26'0 0.2
2016-Jun-25 23:33N 36°08' W 005°26'1 0.8
2016-Jun-25 22:31N 36°08' W 005°25'0 0.0
2016-Jun-25 21:33N 36°08' W 005°25'1 0.7
2016-Jun-25 20:33N 36°08' W 005°24'1 0.7
2016-Jun-25 19:33N 36°08' W 005°25'0 0.0
2016-Jun-25 18:33N 36°08' W 005°25'0 0.0
2016-Jun-25 17:28N 36°08' W 005°25'0 0.3
2016-Jun-25 16:33N 36°08' W 005°25'1 0.8
2016-Jun-25 15:34N 36°08' W 005°25'0 0.5
2016-Jun-25 14:33N 36°08' W 005°25'0 0.0
2016-Jun-25 13:33N 36°08' W 005°25'0 0.0
2016-Jun-25 12:33N 36°08' W 005°25'0 0.0
2016-Jun-25 11:33N 36°08' W 005°25'0 0.0
2016-Jun-25 10:34N 36°08' W 005°25'0 0.0
2016-Jun-25 09:34N 36°08' W 005°25'1 0.6
2016-Jun-25 08:33N 36°08' W 005°24'1 0.6
2016-Jun-25 07:33N 36°08' W 005°25'1 0.8
2016-Jun-25 06:33N 36°09' W 005°26'1 0.5
2016-Jun-25 05:25N 36°08' W 005°26'0 0.0
2016-Jun-25 04:32N 36°08' W 005°26'0 0.0
2016-Jun-25 03:33N 36°08' W 005°26'0 0.0
2016-Jun-25 02:26N 36°08' W 005°26'0 0.0
2016-Jun-25 01:29N 36°08' W 005°26'0 0.1
2016-Jun-25 00:33N 36°08' W 005°26'1 0.6
2016-Jun-24 23:33N 36°08' W 005°26'0 0.0
2016-Jun-24 22:33N 36°08' W 005°26'0 0.0
2016-Jun-24 21:29N 36°08' W 005°26'0 0.4
2016-Jun-24 20:33N 36°08' W 005°26'0 0.3
2016-Jun-24 19:30N 36°08' W 005°26'2 1.8
2016-Jun-24 18:33N 36°09' W 005°25'1 0.9
2016-Jun-24 17:18N 36°08' W 005°26'0 0.1
2016-Jun-24 11:08N 36°08' W 005°26'1 0.7
2016-Jun-24 10:13N 36°09' W 005°26'1 0.1
2016-Jun-24 04:32N 36°08' W 005°26'0 0.0
2016-Jun-24 03:33N 36°08' W 005°26'0 0.0
2016-Jun-24 02:33N 36°08' W 005°26'0 0.0
2016-Jun-24 01:33N 36°08' W 005°26'0 0.0
2016-Jun-24 00:33N 36°08' W 005°26'0 0.0
2016-Jun-23 23:33N 36°08' W 005°26'0 0.0
2016-Jun-23 22:33N 36°08' W 005°26'0 0.0
2016-Jun-23 21:33N 36°08' W 005°26'0 0.0
2016-Jun-23 19:28N 36°08' W 005°26'1 1.1
2016-Jun-23 18:30N 36°09' W 005°26'1 0.3
2016-Jun-23 15:32N 36°08' W 005°26'0 0.0
2016-Jun-23 11:33N 36°08' W 005°26'0 0.5
2016-Jun-23 10:33N 36°08' W 005°26'0 0.1
2016-Jun-23 05:25N 36°08' W 005°26'1 0.6
2016-Jun-23 04:27N 36°09' W 005°26'1 0.8
2016-Jun-23 03:32N 36°08' W 005°26'0 0.0
2016-Jun-23 02:31N 36°08' W 005°26'0 0.0
2016-Jun-23 01:33N 36°08' W 005°26'0 0.4
2016-Jun-23 00:29N 36°08' W 005°26'0 0.4
2016-Jun-22 23:33N 36°08' W 005°26'0 0.0
2016-Jun-22 22:33N 36°08' W 005°26'0 0.0
2016-Jun-22 21:33N 36°08' W 005°26'1 0.1
2016-Jun-22 13:16N 36°09' W 005°26'0 0.6
2016-Jun-22 12:23N 36°08' W 005°26'1 0.1
2016-Jun-22 04:32N 36°09' W 005°25'1 0.3
2016-Jun-22 00:29N 36°08' W 005°26'1 1.0
2016-Jun-21 23:16N 36°09' W 005°25'1 1.9
2016-Jun-21 22:33N 36°08' W 005°25'1 0.2
2016-Jun-21 19:10N 36°08' W 005°26'2 1.4
2016-Jun-21 18:04N 36°09' W 005°24'1 1.3
2016-Jun-21 17:21N 36°08' W 005°25'1 1.1
2016-Jun-21 16:33N 36°09' W 005°26'1 0.2
2016-Jun-21 14:29N 36°08' W 005°26'1 0.5
2016-Jun-21 13:15N 36°09' W 005°26'1 0.2
2016-Jun-21 09:32N 36°08' W 005°26'0 0.0
2016-Jun-21 08:24N 36°08' W 005°26'1 0.3
2016-Jun-21 04:33N 36°09' W 005°26'1 0.2
2016-Jun-21 00:05N 36°08' W 005°26'1 1.4
2016-Jun-20 23:33N 36°09' W 005°26'  
Track history (hours):
 
Tides and Currents Weather Stations Pressure Air Temp Water Temp Dewpoint Dewpoint Depression Visibility Wind Speed Wind Dir Waves Ship Positions

V.b Algeciras

Last reported at 2016-Jun-30 22:33 UTC. Time now 2016-Jun-30 23:14 UTC.
Position N 36°08' W 005°26'.

Length 30 m; draft 5.1 m.

Type: Tug. MMSI: 224121250.

Date/timePositionNaut miles runAvg speedWind from/ knotsBaromVisibWave heightAir tempDewpointWater temp
2016-Jun-30 22:33N 36°08' W 005°26'0 0.0
2016-Jun-30 21:33N 36°08' W 005°26'0 0.0
2016-Jun-30 20:23N 36°08' W 005°26'0 0.0
2016-Jun-30 19:31N 36°08' W 005°26'0 0.0
2016-Jun-30 18:33N 36°08' W 005°26'0 0.1
2016-Jun-30 16:16N 36°08' W 005°26'0 0.6
2016-Jun-30 15:31N 36°08' W 005°25'0 0.1
2016-Jun-30 12:31N 36°08' W 005°26'0 0.4
2016-Jun-30 11:25N 36°08' W 005°25'1 0.7
2016-Jun-30 10:27N 36°09' W 005°26'2 0.4
2016-Jun-30 04:20N 36°11' W 005°24'0 0.5
2016-Jun-30 03:33N 36°11' W 005°24'0 0.3
2016-Jun-30 02:24N 36°11' W 005°24'3 3.2
2016-Jun-30 01:33N 36°08' W 005°25'0 0.0
2016-Jun-30 00:33N 36°08' W 005°25'0 0.0
2016-Jun-29 23:33N 36°08' W 005°25'0 0.0
2016-Jun-29 22:32N 36°08' W 005°25'0 0.0
2016-Jun-29 21:33N 36°08' W 005°25'0 0.0
2016-Jun-29 20:28N 36°08' W 005°25'0 0.0
2016-Jun-29 19:33N 36°08' W 005°25'0 0.0
2016-Jun-29 18:26N 36°08' W 005°25'0 0.0
2016-Jun-29 17:30N 36°08' W 005°25'0 0.0
2016-Jun-29 16:33N 36°08' W 005°25'0 0.0
2016-Jun-29 15:33N 36°08' W 005°25'1 0.5
2016-Jun-29 14:33N 36°08' W 005°25'1 0.5
2016-Jun-29 13:30N 36°08' W 005°25'0 0.0
2016-Jun-29 12:31N 36°08' W 005°25'1 0.5
2016-Jun-29 11:31N 36°08' W 005°25'1 0.5
2016-Jun-29 10:33N 36°08' W 005°25'0 0.0
2016-Jun-29 09:33N 36°08' W 005°25'0 0.0
2016-Jun-29 08:31N 36°08' W 005°25'0 0.0
2016-Jun-29 07:13N 36°08' W 005°25'1 0.8
2016-Jun-29 06:33N 36°08' W 005°26'0 0.0
2016-Jun-29 05:29N 36°08' W 005°26'0 0.0
2016-Jun-29 04:22N 36°08' W 005°26'1 0.9
2016-Jun-29 03:33N 36°08' W 005°25'1 0.5
2016-Jun-29 02:33N 36°08' W 005°25'0 0.5
2016-Jun-29 01:33N 36°08' W 005°25'1 0.6
2016-Jun-29 00:34N 36°08' W 005°25'0 0.3
2016-Jun-28 23:33N 36°08' W 005°26'0 0.0
2016-Jun-28 22:19N 36°08' W 005°26'0 0.0
2016-Jun-28 21:33N 36°08' W 005°26'0 0.0
2016-Jun-28 20:29N 36°08' W 005°26'0 0.3
2016-Jun-28 19:33N 36°08' W 005°25'0 0.3
2016-Jun-28 18:33N 36°08' W 005°26'0 0.0
2016-Jun-28 17:10N 36°08' W 005°26'0 0.0
2016-Jun-28 12:31N 36°08' W 005°26'0 0.0
2016-Jun-28 11:30N 36°08' W 005°26'0 0.0
2016-Jun-28 09:04N 36°08' W 005°26'0 0.7
2016-Jun-28 08:33N 36°08' W 005°25'0 0.3
2016-Jun-28 07:29N 36°08' W 005°26'1 0.8
2016-Jun-28 06:33N 36°07' W 005°25'1 0.4
2016-Jun-28 04:22N 36°08' W 005°26'0 0.0
2016-Jun-28 02:10N 36°08' W 005°26'1 0.1
2016-Jun-27 16:21N 36°09' W 005°25'0 0.1
2016-Jun-27 12:34N 36°08' W 005°26'0 0.3
2016-Jun-27 11:32N 36°08' W 005°25'0 0.1
2016-Jun-27 10:29N 36°08' W 005°25'0 0.0
2016-Jun-27 04:33N 36°08' W 005°25'0 0.4
2016-Jun-27 03:33N 36°07' W 005°25'1 0.1
2016-Jun-26 21:26N 36°08' W 005°26'0 0.1
2016-Jun-26 16:33N 36°08' W 005°25'0 0.3
2016-Jun-26 15:33N 36°08' W 005°26'0 0.0
2016-Jun-26 14:21N 36°08' W 005°26'0 0.0
2016-Jun-26 13:24N 36°08' W 005°26'0 0.2
2016-Jun-26 12:05N 36°08' W 005°26'0 0.1
2016-Jun-26 10:28N 36°08' W 005°26'0 0.0
2016-Jun-26 08:20N 36°08' W 005°26'0 0.3
2016-Jun-26 07:33N 36°08' W 005°25'0 0.4
2016-Jun-26 06:30N 36°08' W 005°26'0 0.3
2016-Jun-26 05:33N 36°08' W 005°26'0 0.2
2016-Jun-26 04:33N 36°08' W 005°26'1 0.6
2016-Jun-26 03:28N 36°09' W 005°25'1 0.8
2016-Jun-26 02:34N 36°08' W 005°25'1 0.5
2016-Jun-26 01:34N 36°08' W 005°26'0 0.2
2016-Jun-25 23:33N 36°08' W 005°26'1 0.8
2016-Jun-25 22:31N 36°08' W 005°25'0 0.0
2016-Jun-25 21:33N 36°08' W 005°25'1 0.7
2016-Jun-25 20:33N 36°08' W 005°24'1 0.7
2016-Jun-25 19:33N 36°08' W 005°25'0 0.0
2016-Jun-25 18:33N 36°08' W 005°25'0 0.0
2016-Jun-25 17:28N 36°08' W 005°25'0 0.3
2016-Jun-25 16:33N 36°08' W 005°25'1 0.8
2016-Jun-25 15:34N 36°08' W 005°25'0 0.5
2016-Jun-25 14:33N 36°08' W 005°25'0 0.0
2016-Jun-25 13:33N 36°08' W 005°25'0 0.0
2016-Jun-25 12:33N 36°08' W 005°25'0 0.0
2016-Jun-25 11:33N 36°08' W 005°25'0 0.0
2016-Jun-25 10:34N 36°08' W 005°25'0 0.0
2016-Jun-25 09:34N 36°08' W 005°25'1 0.6
2016-Jun-25 08:33N 36°08' W 005°24'1 0.6
2016-Jun-25 07:33N 36°08' W 005°25'1 0.8
2016-Jun-25 06:33N 36°09' W 005°26'1 0.5
2016-Jun-25 05:25N 36°08' W 005°26'0 0.0
2016-Jun-25 04:32N 36°08' W 005°26'0 0.0
2016-Jun-25 03:33N 36°08' W 005°26'0 0.0
2016-Jun-25 02:26N 36°08' W 005°26'0 0.0
2016-Jun-25 01:29N 36°08' W 005°26'0 0.1
2016-Jun-25 00:33N 36°08' W 005°26'1 0.6
2016-Jun-24 23:33N 36°08' W 005°26'0 0.0
2016-Jun-24 22:33N 36°08' W 005°26'0 0.0
2016-Jun-24 21:29N 36°08' W 005°26'0 0.4
2016-Jun-24 20:33N 36°08' W 005°26'0 0.3
2016-Jun-24 19:30N 36°08' W 005°26'2 1.8
2016-Jun-24 18:33N 36°09' W 005°25'1 0.9
2016-Jun-24 17:18N 36°08' W 005°26'0 0.1
2016-Jun-24 11:08N 36°08' W 005°26'1 0.7
2016-Jun-24 10:13N 36°09' W 005°26'1 0.1
2016-Jun-24 04:32N 36°08' W 005°26'0 0.0
2016-Jun-24 03:33N 36°08' W 005°26'0 0.0
2016-Jun-24 02:33N 36°08' W 005°26'0 0.0
2016-Jun-24 01:33N 36°08' W 005°26'0 0.0
2016-Jun-24 00:33N 36°08' W 005°26'0 0.0
2016-Jun-23 23:33N 36°08' W 005°26'0 0.0
2016-Jun-23 22:33N 36°08' W 005°26'0 0.0
2016-Jun-23 21:33N 36°08' W 005°26'0 0.0
2016-Jun-23 19:28N 36°08' W 005°26'1 1.1
2016-Jun-23 18:30N 36°09' W 005°26'1 0.3
2016-Jun-23 15:32N 36°08' W 005°26'0 0.0
2016-Jun-23 11:33N 36°08' W 005°26'0 0.5
2016-Jun-23 10:33N 36°08' W 005°26'0 0.1
2016-Jun-23 05:25N 36°08' W 005°26'1 0.6
2016-Jun-23 04:27N 36°09' W 005°26'1 0.8
2016-Jun-23 03:32N 36°08' W 005°26'0 0.0
2016-Jun-23 02:31N 36°08' W 005°26'0 0.0
2016-Jun-23 01:33N 36°08' W 005°26'0 0.4
2016-Jun-23 00:29N 36°08' W 005°26'0 0.4
2016-Jun-22 23:33N 36°08' W 005°26'0 0.0
2016-Jun-22 22:33N 36°08' W 005°26'0 0.0
2016-Jun-22 21:33N 36°08' W 005°26'1 0.1
2016-Jun-22 13:16N 36°09' W 005°26'0 0.6
2016-Jun-22 12:23N 36°08' W 005°26'1 0.1
2016-Jun-22 04:32N 36°09' W 005°25'1 0.3
2016-Jun-22 00:29N 36°08' W 005°26'1 1.0
2016-Jun-21 23:16N 36°09' W 005°25'1 1.9
2016-Jun-21 22:33N 36°08' W 005°25'1 0.2
2016-Jun-21 19:10N 36°08' W 005°26'2 1.4
2016-Jun-21 18:04N 36°09' W 005°24'1 1.3
2016-Jun-21 17:21N 36°08' W 005°25'1 1.1
2016-Jun-21 16:33N 36°09' W 005°26'1 0.2
2016-Jun-21 14:29N 36°08' W 005°26'1 0.5
2016-Jun-21 13:15N 36°09' W 005°26'1 0.2
2016-Jun-21 09:32N 36°08' W 005°26'0 0.0
2016-Jun-21 08:24N 36°08' W 005°26'1 0.3
2016-Jun-21 04:33N 36°09' W 005°26'1 0.2
2016-Jun-21 00:05N 36°08' W 005°26'1 1.4
2016-Jun-20 23:33N 36°09' W 005°26'  

Dump ship's entire track history